sensor_id;sensor_type;location;lat;lon;timestamp;pressure;altitude;pressure_sealevel;temperature;humidity
11985;BME280;6052;53.246;10.368;2024-01-30T00:00:46;102295.16;;;6.10;100.00
11985;BME280;6052;53.246;10.368;2024-01-30T00:03:16;102296.66;;;6.13;100.00
11985;BME280;6052;53.246;10.368;2024-01-30T00:05:45;102292.16;;;5.97;100.00
11985;BME280;6052;53.246;10.368;2024-01-30T00:08:15;102296.63;;;6.21;100.00
11985;BME280;6052;53.246;10.368;2024-01-30T00:10:48;102296.97;;;6.10;100.00
11985;BME280;6052;53.246;10.368;2024-01-30T00:13:18;102292.47;;;5.94;100.00
11985;BME280;6052;53.246;10.368;2024-01-30T00:15:48;102292.69;;;5.93;100.00
11985;BME280;6052;53.246;10.368;2024-01-30T00:18:17;102299.31;;;6.05;100.00
11985;BME280;6052;53.246;10.368;2024-01-30T00:20:48;102291.28;;;6.21;100.00
11985;BME280;6052;53.246;10.368;2024-01-30T00:23:18;102281.97;;;6.17;100.00
11985;BME280;6052;53.246;10.368;2024-01-30T00:25:50;102291.44;;;6.19;100.00
11985;BME280;6052;53.246;10.368;2024-01-30T00:28:20;102290.81;;;6.25;100.00
11985;BME280;6052;53.246;10.368;2024-01-30T00:30:50;102284.63;;;6.33;100.00
11985;BME280;6052;53.246;10.368;2024-01-30T00:33:21;102293.63;;;6.24;100.00
11985;BME280;6052;53.246;10.368;2024-01-30T00:35:51;102290.28;;;6.22;100.00
11985;BME280;6052;53.246;10.368;2024-01-30T00:38:21;102292.47;;;6.26;100.00
11985;BME280;6052;53.246;10.368;2024-01-30T00:40:53;102291.31;;;6.13;100.00
11985;BME280;6052;53.246;10.368;2024-01-30T00:43:23;102287.16;;;6.10;100.00
11985;BME280;6052;53.246;10.368;2024-01-30T00:45:53;102289.16;;;5.76;100.00
11985;BME280;6052;53.246;10.368;2024-01-30T00:48:24;102283.16;;;5.90;100.00
11985;BME280;6052;53.246;10.368;2024-01-30T00:50:54;102287.34;;;5.85;100.00
11985;BME280;6052;53.246;10.368;2024-01-30T00:53:24;102279.66;;;5.82;100.00
11985;BME280;6052;53.246;10.368;2024-01-30T00:55:56;102280.00;;;5.95;100.00
11985;BME280;6052;53.246;10.368;2024-01-30T00:58:26;102272.34;;;5.92;100.00
11985;BME280;6052;53.246;10.368;2024-01-30T01:00:56;102278.66;;;6.15;100.00
11985;BME280;6052;53.246;10.368;2024-01-30T01:03:26;102278.00;;;6.13;100.00
11985;BME280;6052;53.246;10.368;2024-01-30T01:05:53;102274.31;;;6.06;100.00
11985;BME280;6052;53.246;10.368;2024-01-30T01:08:23;102281.94;;;6.25;100.00
11985;BME280;6052;53.246;10.368;2024-01-30T01:10:56;102286.75;;;6.29;100.00
11985;BME280;6052;53.246;10.368;2024-01-30T01:13:26;102282.13;;;6.23;100.00
11985;BME280;6052;53.246;10.368;2024-01-30T01:15:55;102276.09;;;6.29;100.00
11985;BME280;6052;53.246;10.368;2024-01-30T01:18:25;102275.13;;;6.22;100.00
11985;BME280;6052;53.246;10.368;2024-01-30T01:20:55;102274.16;;;6.07;100.00
11985;BME280;6052;53.246;10.368;2024-01-30T01:23:25;102277.34;;;5.95;100.00
11985;BME280;6052;53.246;10.368;2024-01-30T01:25:57;102273.97;;;6.17;100.00
11985;BME280;6052;53.246;10.368;2024-01-30T01:28:28;102269.00;;;6.14;100.00
11985;BME280;6052;53.246;10.368;2024-01-30T01:30:57;102268.81;;;5.99;100.00
11985;BME280;6052;53.246;10.368;2024-01-30T01:33:32;102267.34;;;6.05;100.00
11985;BME280;6052;53.246;10.368;2024-01-30T01:36:04;102271.47;;;5.75;100.00
11985;BME280;6052;53.246;10.368;2024-01-30T01:38:34;102272.97;;;5.78;100.00
11985;BME280;6052;53.246;10.368;2024-01-30T01:41:06;102276.66;;;5.69;100.00
11985;BME280;6052;53.246;10.368;2024-01-30T01:43:36;102261.19;;;5.80;100.00
11985;BME280;6052;53.246;10.368;2024-01-30T01:46:06;102266.00;;;6.01;100.00
11985;BME280;6052;53.246;10.368;2024-01-30T01:48:36;102271.00;;;6.04;100.00
11985;BME280;6052;53.246;10.368;2024-01-30T01:51:07;102268.50;;;6.10;100.00
11985;BME280;6052;53.246;10.368;2024-01-30T01:53:37;102266.66;;;6.11;100.00
11985;BME280;6052;53.246;10.368;2024-01-30T01:56:09;102266.81;;;6.17;100.00
11985;BME280;6052;53.246;10.368;2024-01-30T01:58:40;102257.16;;;6.08;100.00
11985;BME280;6052;53.246;10.368;2024-01-30T02:01:11;102258.97;;;6.16;100.00
11985;BME280;6052;53.246;10.368;2024-01-30T02:03:43;102256.47;;;6.22;100.00
11985;BME280;6052;53.246;10.368;2024-01-30T02:06:13;102257.16;;;6.16;100.00
11985;BME280;6052;53.246;10.368;2024-01-30T02:08:44;102252.16;;;6.21;100.00
11985;BME280;6052;53.246;10.368;2024-01-30T02:11:16;102247.97;;;6.19;100.00
11985;BME280;6052;53.246;10.368;2024-01-30T02:13:46;102248.81;;;6.19;100.00
11985;BME280;6052;53.246;10.368;2024-01-30T02:16:17;102242.66;;;6.19;100.00
11985;BME280;6052;53.246;10.368;2024-01-30T02:18:47;102242.69;;;6.03;100.00
11985;BME280;6052;53.246;10.368;2024-01-30T02:21:19;102247.31;;;6.17;100.00
11985;BME280;6052;53.246;10.368;2024-01-30T02:23:50;102241.31;;;6.15;100.00
11985;BME280;6052;53.246;10.368;2024-01-30T02:26:22;102235.97;;;6.23;100.00
11985;BME280;6052;53.246;10.368;2024-01-30T02:28:52;102235.16;;;6.14;100.00
11985;BME280;6052;53.246;10.368;2024-01-30T02:31:22;102235.66;;;6.18;100.00
11985;BME280;6052;53.246;10.368;2024-01-30T02:33:51;102234.34;;;6.14;100.00
11985;BME280;6052;53.246;10.368;2024-01-30T02:36:24;102229.00;;;6.14;100.00
11985;BME280;6052;53.246;10.368;2024-01-30T02:38:54;102229.69;;;6.08;100.00
11985;BME280;6052;53.246;10.368;2024-01-30T02:41:24;102231.69;;;6.06;100.00
11985;BME280;6052;53.246;10.368;2024-01-30T02:43:54;102225.34;;;6.15;100.00
11985;BME280;6052;53.246;10.368;2024-01-30T02:46:23;102218.84;;;6.09;100.00
11985;BME280;6052;53.246;10.368;2024-01-30T02:48:53;102217.34;;;6.07;100.00
11985;BME280;6052;53.246;10.368;2024-01-30T02:51:26;102214.69;;;6.07;100.00
11985;BME280;6052;53.246;10.368;2024-01-30T02:53:56;102225.84;;;6.10;100.00
11985;BME280;6052;53.246;10.368;2024-01-30T02:56:26;102226.50;;;6.04;100.00
11985;BME280;6052;53.246;10.368;2024-01-30T02:58:56;102216.69;;;6.05;100.00
11985;BME280;6052;53.246;10.368;2024-01-30T03:01:26;102214.50;;;6.08;100.00
11985;BME280;6052;53.246;10.368;2024-01-30T03:03:56;102215.19;;;6.02;100.00
11985;BME280;6052;53.246;10.368;2024-01-30T03:06:28;102209.19;;;6.08;100.00
11985;BME280;6052;53.246;10.368;2024-01-30T03:08:58;102210.50;;;6.12;100.00
11985;BME280;6052;53.246;10.368;2024-01-30T03:11:28;102203.69;;;6.02;100.00
11985;BME280;6052;53.246;10.368;2024-01-30T03:13:58;102204.03;;;6.07;100.00
11985;BME280;6052;53.246;10.368;2024-01-30T03:16:28;102197.72;;;6.08;100.00
11985;BME280;6052;53.246;10.368;2024-01-30T03:18:58;102202.72;;;5.79;100.00
11985;BME280;6052;53.246;10.368;2024-01-30T03:21:32;102200.41;;;5.76;100.00
11985;BME280;6052;53.246;10.368;2024-01-30T03:24:02;102193.91;;;5.70;100.00
11985;BME280;6052;53.246;10.368;2024-01-30T03:26:32;102204.22;;;5.65;100.00
11985;BME280;6052;53.246;10.368;2024-01-30T03:29:02;102195.06;;;5.68;100.00
11985;BME280;6052;53.246;10.368;2024-01-30T03:31:32;102200.56;;;5.74;100.00
11985;BME280;6052;53.246;10.368;2024-01-30T03:34:02;102189.41;;;5.71;100.00
11985;BME280;6052;53.246;10.368;2024-01-30T03:36:35;102199.75;;;5.66;100.00
11985;BME280;6052;53.246;10.368;2024-01-30T03:39:05;102191.75;;;5.74;100.00
11985;BME280;6052;53.246;10.368;2024-01-30T03:41:35;102192.25;;;5.77;100.00
11985;BME280;6052;53.246;10.368;2024-01-30T03:44:06;102186.09;;;5.85;100.00
11985;BME280;6052;53.246;10.368;2024-01-30T03:46:36;102185.41;;;5.75;100.00
11985;BME280;6052;53.246;10.368;2024-01-30T03:49:06;102190.09;;;5.65;100.00
11985;BME280;6052;53.246;10.368;2024-01-30T03:51:38;102187.91;;;5.60;100.00
11985;BME280;6052;53.246;10.368;2024-01-30T03:54:08;102185.91;;;5.78;100.00
11985;BME280;6052;53.246;10.368;2024-01-30T03:56:38;102175.13;;;5.56;100.00
11985;BME280;6052;53.246;10.368;2024-01-30T03:59:08;102183.25;;;5.70;100.00
11985;BME280;6052;53.246;10.368;2024-01-30T04:01:38;102185.41;;;5.67;100.00
11985;BME280;6052;53.246;10.368;2024-01-30T04:04:08;102187.59;;;5.63;100.00
11985;BME280;6052;53.246;10.368;2024-01-30T04:06:41;102189.25;;;5.72;100.00
11985;BME280;6052;53.246;10.368;2024-01-30T04:09:11;102177.91;;;5.78;100.00
11985;BME280;6052;53.246;10.368;2024-01-30T04:11:41;102182.75;;;5.83;100.00
11985;BME280;6052;53.246;10.368;2024-01-30T04:14:11;102180.09;;;5.75;100.00
11985;BME280;6052;53.246;10.368;2024-01-30T04:16:41;102177.44;;;5.75;100.00
11985;BME280;6052;53.246;10.368;2024-01-30T04:19:11;102180.09;;;5.67;100.00
11985;BME280;6052;53.246;10.368;2024-01-30T04:21:44;102180.28;;;5.57;100.00
11985;BME280;6052;53.246;10.368;2024-01-30T04:24:14;102170.44;;;5.66;100.00
11985;BME280;6052;53.246;10.368;2024-01-30T04:26:45;102177.94;;;5.54;100.00
11985;BME280;6052;53.246;10.368;2024-01-30T04:29:15;102175.97;;;5.56;100.00
11985;BME280;6052;53.246;10.368;2024-01-30T04:31:46;102176.44;;;5.60;100.00
11985;BME280;6052;53.246;10.368;2024-01-30T04:34:16;102177.13;;;5.54;100.00
11985;BME280;6052;53.246;10.368;2024-01-30T04:36:48;102172.78;;;5.61;100.00
11985;BME280;6052;53.246;10.368;2024-01-30T04:39:18;102175.44;;;5.53;100.00
11985;BME280;6052;53.246;10.368;2024-01-30T04:41:49;102179.28;;;5.58;100.00
11985;BME280;6052;53.246;10.368;2024-01-30T04:44:19;102184.94;;;5.55;100.00
11985;BME280;6052;53.246;10.368;2024-01-30T04:46:49;102174.47;;;5.46;100.00
11985;BME280;6052;53.246;10.368;2024-01-30T04:49:19;102174.78;;;5.51;100.00
11985;BME280;6052;53.246;10.368;2024-01-30T04:51:51;102186.09;;;5.53;100.00
11985;BME280;6052;53.246;10.368;2024-01-30T04:54:21;102176.63;;;5.50;100.00
11985;BME280;6052;53.246;10.368;2024-01-30T04:56:51;102174.47;;;5.54;100.00
11985;BME280;6052;53.246;10.368;2024-01-30T04:59:21;102180.28;;;5.49;100.00
11985;BME280;6052;53.246;10.368;2024-01-30T05:01:51;102176.94;;;5.31;100.00
11985;BME280;6052;53.246;10.368;2024-01-30T05:04:21;102185.78;;;5.40;100.00
11985;BME280;6052;53.246;10.368;2024-01-30T05:06:54;102188.44;;;5.32;100.00
11985;BME280;6052;53.246;10.368;2024-01-30T05:09:24;102183.28;;;5.38;100.00
11985;BME280;6052;53.246;10.368;2024-01-30T05:11:55;102184.63;;;5.34;100.00
11985;BME280;6052;53.246;10.368;2024-01-30T05:14:25;102191.44;;;5.45;100.00
11985;BME280;6052;53.246;10.368;2024-01-30T05:16:55;102185.47;;;5.35;100.00
11985;BME280;6052;53.246;10.368;2024-01-30T05:19:24;102187.28;;;5.34;100.00
11985;BME280;6052;53.246;10.368;2024-01-30T05:21:57;102191.59;;;5.51;100.00
11985;BME280;6052;53.246;10.368;2024-01-30T05:24:27;102189.59;;;5.45;100.00
11985;BME280;6052;53.246;10.368;2024-01-30T05:26:57;102192.59;;;5.66;100.00
11985;BME280;6052;53.246;10.368;2024-01-30T05:29:27;102184.44;;;5.60;100.00
11985;BME280;6052;53.246;10.368;2024-01-30T05:31:57;102185.94;;;5.46;100.00
11985;BME280;6052;53.246;10.368;2024-01-30T05:34:27;102182.44;;;5.38;100.00
11985;BME280;6052;53.246;10.368;2024-01-30T05:36:59;102180.13;;;5.27;100.00
11985;BME280;6052;53.246;10.368;2024-01-30T05:39:29;102172.78;;;5.29;100.00
11985;BME280;6052;53.246;10.368;2024-01-30T05:41:59;102160.81;;;5.41;100.00
11985;BME280;6052;53.246;10.368;2024-01-30T05:44:29;102163.47;;;5.17;100.00
11985;BME280;6052;53.246;10.368;2024-01-30T05:47:00;102175.66;;;5.27;100.00
11985;BME280;6052;53.246;10.368;2024-01-30T05:49:30;102170.13;;;5.13;100.00
11985;BME280;6052;53.246;10.368;2024-01-30T05:52:03;102168.81;;;5.25;100.00
11985;BME280;6052;53.246;10.368;2024-01-30T05:54:34;102171.31;;;5.34;100.00
11985;BME280;6052;53.246;10.368;2024-01-30T05:57:04;102176.13;;;5.39;100.00
11985;BME280;6052;53.246;10.368;2024-01-30T05:59:34;102171.13;;;5.28;100.00
11985;BME280;6052;53.246;10.368;2024-01-30T06:02:07;102167.13;;;5.24;100.00
11985;BME280;6052;53.246;10.368;2024-01-30T06:04:37;102170.81;;;5.31;100.00
11985;BME280;6052;53.246;10.368;2024-01-30T06:07:10;102163.81;;;5.22;100.00
11985;BME280;6052;53.246;10.368;2024-01-30T06:09:41;102160.31;;;5.21;100.00
11985;BME280;6052;53.246;10.368;2024-01-30T06:12:11;102156.34;;;5.17;100.00
11985;BME280;6052;53.246;10.368;2024-01-30T06:14:40;102156.50;;;5.08;100.00
11985;BME280;6052;53.246;10.368;2024-01-30T06:17:13;102161.34;;;5.12;100.00
11985;BME280;6052;53.246;10.368;2024-01-30T06:19:43;102161.31;;;5.20;100.00
11985;BME280;6052;53.246;10.368;2024-01-30T06:22:15;102152.69;;;5.18;100.00
11985;BME280;6052;53.246;10.368;2024-01-30T06:24:45;102152.34;;;5.21;100.00
11985;BME280;6052;53.246;10.368;2024-01-30T06:27:17;102148.03;;;5.28;100.00
11985;BME280;6052;53.246;10.368;2024-01-30T06:29:48;102144.34;;;5.29;100.00
11985;BME280;6052;53.246;10.368;2024-01-30T06:32:18;102144.84;;;5.33;100.00
11985;BME280;6052;53.246;10.368;2024-01-30T06:34:48;102143.84;;;5.34;100.00
11985;BME280;6052;53.246;10.368;2024-01-30T06:40:44;102138.53;;;5.10;100.00
11985;BME280;6052;53.246;10.368;2024-01-30T06:43:14;102134.53;;;5.14;100.00
11985;BME280;6052;53.246;10.368;2024-01-30T06:45:44;102129.72;;;5.09;100.00
11985;BME280;6052;53.246;10.368;2024-01-30T06:48:14;102125.22;;;5.10;100.00
11985;BME280;6052;53.246;10.368;2024-01-30T06:50:44;102131.88;;;5.14;100.00
11985;BME280;6052;53.246;10.368;2024-01-30T06:53:14;102130.72;;;5.08;100.00
11985;BME280;6052;53.246;10.368;2024-01-30T06:55:47;102130.53;;;5.10;100.00
11985;BME280;6052;53.246;10.368;2024-01-30T06:58:17;102126.72;;;5.20;100.00
11985;BME280;6052;53.246;10.368;2024-01-30T07:00:47;102121.06;;;5.07;100.00
11985;BME280;6052;53.246;10.368;2024-01-30T07:03:17;102130.06;;;5.14;100.00
11985;BME280;6052;53.246;10.368;2024-01-30T07:05:47;102128.53;;;5.28;100.00
11985;BME280;6052;53.246;10.368;2024-01-30T07:08:17;102136.38;;;5.21;100.00
11985;BME280;6052;53.246;10.368;2024-01-30T07:10:50;102136.03;;;5.24;100.00
11985;BME280;6052;53.246;10.368;2024-01-30T07:13:27;102132.69;;;5.30;100.00
11985;BME280;6052;53.246;10.368;2024-01-30T07:15:57;102129.06;;;5.23;100.00
11985;BME280;6052;53.246;10.368;2024-01-30T07:18:27;102131.03;;;5.29;100.00
11985;BME280;6052;53.246;10.368;2024-01-30T07:20:57;102130.56;;;5.26;100.00
11985;BME280;6052;53.246;10.368;2024-01-30T07:23:27;102128.38;;;5.21;100.00
11985;BME280;6052;53.246;10.368;2024-01-30T07:25:59;102128.03;;;5.16;100.00
11985;BME280;6052;53.246;10.368;2024-01-30T07:28:29;102121.56;;;5.27;100.00
11985;BME280;6052;53.246;10.368;2024-01-30T07:30:59;102138.06;;;5.22;100.00
11985;BME280;6052;53.246;10.368;2024-01-30T07:33:30;102134.53;;;5.22;100.00
11985;BME280;6052;53.246;10.368;2024-01-30T07:36:00;102134.88;;;5.19;100.00
11985;BME280;6052;53.246;10.368;2024-01-30T07:38:31;102133.22;;;5.18;100.00
11985;BME280;6052;53.246;10.368;2024-01-30T07:41:04;102138.69;;;5.16;100.00
11985;BME280;6052;53.246;10.368;2024-01-30T07:43:34;102133.88;;;5.20;100.00
11985;BME280;6052;53.246;10.368;2024-01-30T07:46:07;102128.06;;;5.24;100.00
11985;BME280;6052;53.246;10.368;2024-01-30T07:48:37;102125.22;;;5.26;100.00
11985;BME280;6052;53.246;10.368;2024-01-30T07:51:07;102119.22;;;5.32;100.00
11985;BME280;6052;53.246;10.368;2024-01-30T07:53:36;102123.91;;;5.30;100.00
11985;BME280;6052;53.246;10.368;2024-01-30T07:56:09;102120.72;;;5.34;100.00
11985;BME280;6052;53.246;10.368;2024-01-30T07:58:39;102120.22;;;5.39;100.00
11985;BME280;6052;53.246;10.368;2024-01-30T08:01:09;102120.69;;;5.50;100.00
11985;BME280;6052;53.246;10.368;2024-01-30T08:03:39;102120.38;;;5.53;100.00
11985;BME280;6052;53.246;10.368;2024-01-30T08:06:09;102123.88;;;5.54;100.00
11985;BME280;6052;53.246;10.368;2024-01-30T08:08:39;102128.00;;;5.64;100.00
11985;BME280;6052;53.246;10.368;2024-01-30T08:11:11;102121.22;;;5.46;100.00
11985;BME280;6052;53.246;10.368;2024-01-30T08:13:41;102120.84;;;5.65;100.00
11985;BME280;6052;53.246;10.368;2024-01-30T08:16:11;102132.00;;;5.68;100.00
11985;BME280;6052;53.246;10.368;2024-01-30T08:18:41;102112.16;;;5.71;100.00
11985;BME280;6052;53.246;10.368;2024-01-30T08:21:11;102119.69;;;5.59;100.00
11985;BME280;6052;53.246;10.368;2024-01-30T08:23:41;102110.88;;;5.59;100.00
11985;BME280;6052;53.246;10.368;2024-01-30T08:26:14;102125.81;;;5.68;100.00
11985;BME280;6052;53.246;10.368;2024-01-30T08:28:44;102120.84;;;5.65;100.00
11985;BME280;6052;53.246;10.368;2024-01-30T08:31:13;102113.19;;;5.62;100.00
11985;BME280;6052;53.246;10.368;2024-01-30T08:33:44;102116.84;;;5.69;100.00
11985;BME280;6052;53.246;10.368;2024-01-30T08:36:17;102106.84;;;5.71;100.00
11985;BME280;6052;53.246;10.368;2024-01-30T08:38:47;102108.03;;;5.68;100.00
11985;BME280;6052;53.246;10.368;2024-01-30T08:41:22;102102.84;;;5.75;100.00
11985;BME280;6052;53.246;10.368;2024-01-30T08:43:52;102105.81;;;5.80;100.00
11985;BME280;6052;53.246;10.368;2024-01-30T08:46:22;102105.81;;;5.88;100.00
11985;BME280;6052;53.246;10.368;2024-01-30T08:48:52;102107.31;;;5.90;100.00
11985;BME280;6052;53.246;10.368;2024-01-30T08:51:22;102106.50;;;5.90;100.00
11985;BME280;6052;53.246;10.368;2024-01-30T08:53:52;102099.50;;;5.89;100.00
11985;BME280;6052;53.246;10.368;2024-01-30T08:56:24;102097.00;;;5.95;100.00
11985;BME280;6052;53.246;10.368;2024-01-30T08:58:54;102104.31;;;5.85;100.00
11985;BME280;6052;53.246;10.368;2024-01-30T09:01:24;102104.63;;;5.90;100.00
11985;BME280;6052;53.246;10.368;2024-01-30T09:03:55;102093.78;;;6.00;100.00
11985;BME280;6052;53.246;10.368;2024-01-30T09:06:25;102095.13;;;6.04;100.00
11985;BME280;6052;53.246;10.368;2024-01-30T09:08:55;102094.44;;;6.02;100.00
11985;BME280;6052;53.246;10.368;2024-01-30T09:11:28;102091.41;;;6.13;100.00
11985;BME280;6052;53.246;10.368;2024-01-30T09:13:58;102088.06;;;6.11;100.00
11985;BME280;6052;53.246;10.368;2024-01-30T09:16:28;102093.22;;;6.20;100.00
11985;BME280;6052;53.246;10.368;2024-01-30T09:18:58;102088.34;;;6.24;100.00
11985;BME280;6052;53.246;10.368;2024-01-30T09:21:28;102078.78;;;6.37;100.00
11985;BME280;6052;53.246;10.368;2024-01-30T09:24:02;102081.09;;;6.40;100.00
11985;BME280;6052;53.246;10.368;2024-01-30T09:26:35;102094.59;;;6.39;100.00
11985;BME280;6052;53.246;10.368;2024-01-30T09:29:05;102093.19;;;6.51;100.00
11985;BME280;6052;53.246;10.368;2024-01-30T09:31:34;102090.16;;;6.54;100.00
11985;BME280;6052;53.246;10.368;2024-01-30T09:34:05;102090.78;;;6.64;100.00
11985;BME280;6052;53.246;10.368;2024-01-30T09:36:35;102092.44;;;6.65;100.00
11985;BME280;6052;53.246;10.368;2024-01-30T09:39:05;102084.72;;;6.70;100.00
11985;BME280;6052;53.246;10.368;2024-01-30T09:41:44;102079.00;;;6.81;100.00
11985;BME280;6052;53.246;10.368;2024-01-30T09:44:15;102085.00;;;6.75;100.00
11985;BME280;6052;53.246;10.368;2024-01-30T09:46:47;102087.00;;;6.81;100.00
11985;BME280;6052;53.246;10.368;2024-01-30T09:49:17;102081.75;;;6.87;100.00
11985;BME280;6052;53.246;10.368;2024-01-30T09:51:48;102081.41;;;6.90;100.00
11985;BME280;6052;53.246;10.368;2024-01-30T09:54:19;102080.56;;;6.90;100.00
11985;BME280;6052;53.246;10.368;2024-01-30T09:56:52;102081.53;;;6.97;100.00
11985;BME280;6052;53.246;10.368;2024-01-30T09:59:22;102081.16;;;7.00;100.00
11985;BME280;6052;53.246;10.368;2024-01-30T10:01:52;102081.25;;;7.06;100.00
11985;BME280;6052;53.246;10.368;2024-01-30T10:04:23;102080.34;;;7.14;100.00
11985;BME280;6052;53.246;10.368;2024-01-30T10:06:53;102082.84;;;7.15;100.00
11985;BME280;6052;53.246;10.368;2024-01-30T10:09:25;102077.81;;;7.20;100.00
11985;BME280;6052;53.246;10.368;2024-01-30T10:11:58;102082.13;;;7.21;100.00
11985;BME280;6052;53.246;10.368;2024-01-30T10:14:28;102084.56;;;7.31;100.00
11985;BME280;6052;53.246;10.368;2024-01-30T10:16:58;102083.19;;;7.35;100.00
11985;BME280;6052;53.246;10.368;2024-01-30T10:19:37;102082.97;;;7.36;100.00
11985;BME280;6052;53.246;10.368;2024-01-30T10:22:08;102070.56;;;7.43;100.00
11985;BME280;6052;53.246;10.368;2024-01-30T10:24:39;102072.31;;;7.51;100.00
11985;BME280;6052;53.246;10.368;2024-01-30T10:27:11;102076.00;;;7.64;100.00
11985;BME280;6052;53.246;10.368;2024-01-30T10:29:41;102075.28;;;7.70;100.00
11985;BME280;6052;53.246;10.368;2024-01-30T10:32:11;102063.38;;;7.73;100.00
11985;BME280;6052;53.246;10.368;2024-01-30T10:34:41;102071.31;;;7.81;100.00
11985;BME280;6052;53.246;10.368;2024-01-30T10:37:11;102058.22;;;7.86;100.00
11985;BME280;6052;53.246;10.368;2024-01-30T10:39:44;102056.38;;;8.01;100.00
11985;BME280;6052;53.246;10.368;2024-01-30T10:42:18;102046.34;;;8.03;100.00
11985;BME280;6052;53.246;10.368;2024-01-30T10:44:56;102039.69;;;7.99;100.00
11985;BME280;6052;53.246;10.368;2024-01-30T10:47:28;102051.19;;;8.14;100.00
11985;BME280;6052;53.246;10.368;2024-01-30T10:49:56;102037.06;;;8.20;100.00
11985;BME280;6052;53.246;10.368;2024-01-30T10:52:27;102039.72;;;8.20;100.00
11985;BME280;6052;53.246;10.368;2024-01-30T10:54:59;102038.28;;;8.32;100.00
11985;BME280;6052;53.246;10.368;2024-01-30T10:57:34;102045.28;;;8.33;100.00
11985;BME280;6052;53.246;10.368;2024-01-30T11:00:06;102040.19;;;8.38;100.00
11985;BME280;6052;53.246;10.368;2024-01-30T11:02:41;102038.38;;;8.45;100.00
11985;BME280;6052;53.246;10.368;2024-01-30T11:05:12;102035.53;;;8.46;100.00
11985;BME280;6052;53.246;10.368;2024-01-30T11:07:42;102034.94;;;8.51;100.00
11985;BME280;6052;53.246;10.368;2024-01-30T11:10:12;102031.28;;;8.52;100.00
11985;BME280;6052;53.246;10.368;2024-01-30T11:12:46;102027.25;;;8.62;100.00
11985;BME280;6052;53.246;10.368;2024-01-30T11:15:18;102030.56;;;8.64;100.00
11985;BME280;6052;53.246;10.368;2024-01-30T11:17:51;102027.97;;;8.71;100.00
11985;BME280;6052;53.246;10.368;2024-01-30T11:20:23;102036.09;;;8.84;100.00
11985;BME280;6052;53.246;10.368;2024-01-30T11:22:56;102036.16;;;8.90;100.00
11985;BME280;6052;53.246;10.368;2024-01-30T11:25:26;102032.63;;;8.90;100.00
11985;BME280;6052;53.246;10.368;2024-01-30T11:27:59;102025.09;;;9.00;100.00
11985;BME280;6052;53.246;10.368;2024-01-30T11:30:30;102025.25;;;8.92;100.00
11985;BME280;6052;53.246;10.368;2024-01-30T11:33:01;102029.78;;;9.19;100.00
11985;BME280;6052;53.246;10.368;2024-01-30T11:35:36;102017.41;;;9.18;100.00
11985;BME280;6052;53.246;10.368;2024-01-30T11:38:09;102023.38;;;9.13;100.00
11985;BME280;6052;53.246;10.368;2024-01-30T11:40:39;102029.03;;;9.31;100.00
11985;BME280;6052;53.246;10.368;2024-01-30T11:43:12;102028.47;;;9.36;100.00
11985;BME280;6052;53.246;10.368;2024-01-30T11:45:42;102032.19;;;9.41;100.00
11985;BME280;6052;53.246;10.368;2024-01-30T11:48:12;102032.63;;;9.38;100.00
11985;BME280;6052;53.246;10.368;2024-01-30T11:50:43;102028.25;;;9.31;100.00
11985;BME280;6052;53.246;10.368;2024-01-30T11:53:14;102024.16;;;9.41;100.00
11985;BME280;6052;53.246;10.368;2024-01-30T11:55:49;102021.38;;;9.56;100.00
11985;BME280;6052;53.246;10.368;2024-01-30T11:58:24;102021.16;;;9.51;100.00
11985;BME280;6052;53.246;10.368;2024-01-30T12:00:55;102016.16;;;9.48;100.00
11985;BME280;6052;53.246;10.368;2024-01-30T12:03:25;102022.00;;;9.51;100.00
11985;BME280;6052;53.246;10.368;2024-01-30T12:05:56;102023.69;;;9.59;100.00
11985;BME280;6052;53.246;10.368;2024-01-30T12:08:27;102017.72;;;9.63;100.00
11985;BME280;6052;53.246;10.368;2024-01-30T12:10:57;102012.97;;;9.65;100.00
11985;BME280;6052;53.246;10.368;2024-01-30T12:13:31;102011.69;;;9.55;100.00
11985;BME280;6052;53.246;10.368;2024-01-30T12:16:02;101999.94;;;9.56;100.00
11985;BME280;6052;53.246;10.368;2024-01-30T12:18:32;102005.53;;;9.61;100.00
11985;BME280;6052;53.246;10.368;2024-01-30T12:21:02;102005.38;;;9.69;100.00
11985;BME280;6052;53.246;10.368;2024-01-30T12:23:32;102001.44;;;9.65;100.00
11985;BME280;6052;53.246;10.368;2024-01-30T12:26:02;102001.28;;;9.79;100.00
11985;BME280;6052;53.246;10.368;2024-01-30T12:28:36;101999.44;;;9.80;100.00
11985;BME280;6052;53.246;10.368;2024-01-30T12:31:06;102000.44;;;9.72;100.00
11985;BME280;6052;53.246;10.368;2024-01-30T12:33:36;102008.09;;;9.82;100.00
11985;BME280;6052;53.246;10.368;2024-01-30T12:36:07;102013.69;;;9.87;100.00
11985;BME280;6052;53.246;10.368;2024-01-30T12:38:37;102014.09;;;9.84;100.00
11985;BME280;6052;53.246;10.368;2024-01-30T12:41:07;102003.38;;;9.84;100.00
11985;BME280;6052;53.246;10.368;2024-01-30T12:43:40;101996.34;;;9.76;100.00
11985;BME280;6052;53.246;10.368;2024-01-30T12:46:10;101996.19;;;9.91;100.00
11985;BME280;6052;53.246;10.368;2024-01-30T12:48:40;101996.34;;;9.83;100.00
11985;BME280;6052;53.246;10.368;2024-01-30T12:51:10;101999.66;;;9.85;100.00
11985;BME280;6052;53.246;10.368;2024-01-30T12:53:40;101995.16;;;9.85;100.00
11985;BME280;6052;53.246;10.368;2024-01-30T12:56:10;101992.28;;;10.00;100.00
11985;BME280;6052;53.246;10.368;2024-01-30T12:58:43;101997.81;;;9.85;100.00
11985;BME280;6052;53.246;10.368;2024-01-30T13:01:17;101994.34;;;9.91;100.00
11985;BME280;6052;53.246;10.368;2024-01-30T13:03:48;101992.03;;;9.88;100.00
11985;BME280;6052;53.246;10.368;2024-01-30T13:06:18;102005.47;;;9.95;100.00
11985;BME280;6052;53.246;10.368;2024-01-30T13:08:48;102003.03;;;10.00;100.00
11985;BME280;6052;53.246;10.368;2024-01-30T13:11:17;101997.22;;;9.90;100.00